sensor_id;sensor_type;location;lat;lon;timestamp;temperature;humidity
58413;DHT22;44209;52.952;6.790;2023-06-22T00:02:25;18.70;99.90
58413;DHT22;44209;52.952;6.790;2023-06-22T00:04:51;18.60;99.90
58413;DHT22;44209;52.952;6.790;2023-06-22T00:07:16;18.60;99.90
58413;DHT22;44209;52.952;6.790;2023-06-22T00:09:42;18.60;99.90
58413;DHT22;44209;52.952;6.790;2023-06-22T00:12:08;18.50;99.90
58413;DHT22;44209;52.952;6.790;2023-06-22T00:14:34;18.50;99.90
58413;DHT22;44209;52.952;6.790;2023-06-22T00:16:59;18.50;99.90
58413;DHT22;44209;52.952;6.790;2023-06-22T00:19:25;18.50;99.90
58413;DHT22;44209;52.952;6.790;2023-06-22T00:21:51;18.50;99.90
58413;DHT22;44209;52.952;6.790;2023-06-22T00:24:20;18.40;99.90
58413;DHT22;44209;52.952;6.790;2023-06-22T00:26:47;18.30;99.90
58413;DHT22;44209;52.952;6.790;2023-06-22T00:29:13;18.40;99.90
58413;DHT22;44209;52.952;6.790;2023-06-22T00:31:39;18.40;99.90
58413;DHT22;44209;52.952;6.790;2023-06-22T00:34:04;18.30;99.90
58413;DHT22;44209;52.952;6.790;2023-06-22T00:36:34;18.30;99.90
58413;DHT22;44209;52.952;6.790;2023-06-22T00:39:00;18.30;99.90
58413;DHT22;44209;52.952;6.790;2023-06-22T00:41:26;18.20;99.90
58413;DHT22;44209;52.952;6.790;2023-06-22T00:43:54;18.00;99.90
58413;DHT22;44209;52.952;6.790;2023-06-22T00:46:21;18.00;99.90
58413;DHT22;44209;52.952;6.790;2023-06-22T00:48:48;18.00;99.90
58413;DHT22;44209;52.952;6.790;2023-06-22T00:51:14;18.00;99.90
58413;DHT22;44209;52.952;6.790;2023-06-22T00:53:40;18.00;99.90
58413;DHT22;44209;52.952;6.790;2023-06-22T00:56:07;18.00;99.90
58413;DHT22;44209;52.952;6.790;2023-06-22T00:58:35;17.90;99.90
58413;DHT22;44209;52.952;6.790;2023-06-22T01:01:01;17.70;99.90
58413;DHT22;44209;52.952;6.790;2023-06-22T01:03:27;17.60;99.90
58413;DHT22;44209;52.952;6.790;2023-06-22T01:06:01;17.50;99.90
58413;DHT22;44209;52.952;6.790;2023-06-22T01:08:45;17.50;99.90
58413;DHT22;44209;52.952;6.790;2023-06-22T01:16:46;17.50;99.90
58413;DHT22;44209;52.952;6.790;2023-06-22T01:21:56;17.40;99.90
58413;DHT22;44209;52.952;6.790;2023-06-22T01:24:27;17.40;99.90
58413;DHT22;44209;52.952;6.790;2023-06-22T01:26:59;17.30;99.90
58413;DHT22;44209;52.952;6.790;2023-06-22T01:29:27;17.30;99.90
58413;DHT22;44209;52.952;6.790;2023-06-22T01:31:54;17.20;99.90
58413;DHT22;44209;52.952;6.790;2023-06-22T01:34:21;17.30;99.90
58413;DHT22;44209;52.952;6.790;2023-06-22T01:36:49;17.20;99.90
58413;DHT22;44209;52.952;6.790;2023-06-22T01:39:16;17.20;99.90
58413;DHT22;44209;52.952;6.790;2023-06-22T01:41:42;17.10;99.90
58413;DHT22;44209;52.952;6.790;2023-06-22T01:44:09;17.10;99.90
58413;DHT22;44209;52.952;6.790;2023-06-22T01:46:36;17.10;99.90
58413;DHT22;44209;52.952;6.790;2023-06-22T01:49:03;17.00;99.90
58413;DHT22;44209;52.952;6.790;2023-06-22T01:51:30;17.00;99.90
58413;DHT22;44209;52.952;6.790;2023-06-22T01:53:56;17.00;99.90
58413;DHT22;44209;52.952;6.790;2023-06-22T01:56:21;16.90;99.90
58413;DHT22;44209;52.952;6.790;2023-06-22T01:58:55;17.00;99.90
58413;DHT22;44209;52.952;6.790;2023-06-22T02:01:28;17.00;99.90
58413;DHT22;44209;52.952;6.790;2023-06-22T02:04:24;16.90;99.90
58413;DHT22;44209;52.952;6.790;2023-06-22T02:06:56;17.00;99.90
58413;DHT22;44209;52.952;6.790;2023-06-22T02:09:23;17.00;99.90
58413;DHT22;44209;52.952;6.790;2023-06-22T02:11:52;16.90;99.90
58413;DHT22;44209;52.952;6.790;2023-06-22T02:14:21;17.00;99.90
58413;DHT22;44209;52.952;6.790;2023-06-22T02:16:47;17.00;99.90
58413;DHT22;44209;52.952;6.790;2023-06-22T02:19:13;17.10;99.90
58413;DHT22;44209;52.952;6.790;2023-06-22T02:21:44;17.00;99.90
58413;DHT22;44209;52.952;6.790;2023-06-22T02:24:10;17.00;99.90
58413;DHT22;44209;52.952;6.790;2023-06-22T02:26:36;17.00;99.90
58413;DHT22;44209;52.952;6.790;2023-06-22T02:29:04;17.00;99.90
58413;DHT22;44209;52.952;6.790;2023-06-22T02:31:29;17.00;99.90
58413;DHT22;44209;52.952;6.790;2023-06-22T02:33:59;16.90;99.90
58413;DHT22;44209;52.952;6.790;2023-06-22T02:36:25;17.00;99.90
58413;DHT22;44209;52.952;6.790;2023-06-22T02:38:53;17.00;99.90
58413;DHT22;44209;52.952;6.790;2023-06-22T02:41:19;16.90;99.90
58413;DHT22;44209;52.952;6.790;2023-06-22T02:43:46;16.80;99.90
58413;DHT22;44209;52.952;6.790;2023-06-22T02:46:12;16.80;99.90
58413;DHT22;44209;52.952;6.790;2023-06-22T02:48:42;16.60;99.90
58413;DHT22;44209;52.952;6.790;2023-06-22T02:51:08;16.60;99.90
58413;DHT22;44209;52.952;6.790;2023-06-22T02:53:34;16.50;99.90
58413;DHT22;44209;52.952;6.790;2023-06-22T02:56:02;16.40;99.90
58413;DHT22;44209;52.952;6.790;2023-06-22T02:58:31;16.40;99.90
58413;DHT22;44209;52.952;6.790;2023-06-22T03:01:05;16.30;99.90
58413;DHT22;44209;52.952;6.790;2023-06-22T03:03:31;16.30;99.90
58413;DHT22;44209;52.952;6.790;2023-06-22T03:05:56;16.30;99.90
58413;DHT22;44209;52.952;6.790;2023-06-22T03:08:22;16.40;99.90
58413;DHT22;44209;52.952;6.790;2023-06-22T03:10:48;16.40;99.90
58413;DHT22;44209;52.952;6.790;2023-06-22T03:13:13;16.40;99.90
58413;DHT22;44209;52.952;6.790;2023-06-22T03:15:39;16.30;99.90
58413;DHT22;44209;52.952;6.790;2023-06-22T03:18:04;16.30;99.90
58413;DHT22;44209;52.952;6.790;2023-06-22T03:20:30;16.30;99.90
58413;DHT22;44209;52.952;6.790;2023-06-22T03:22:59;16.30;99.90
58413;DHT22;44209;52.952;6.790;2023-06-22T03:25:25;16.30;99.90
58413;DHT22;44209;52.952;6.790;2023-06-22T03:27:51;16.30;99.90
58413;DHT22;44209;52.952;6.790;2023-06-22T03:30:16;16.40;99.90
58413;DHT22;44209;52.952;6.790;2023-06-22T03:32:42;16.40;99.90
58413;DHT22;44209;52.952;6.790;2023-06-22T03:35:08;16.40;99.90
58413;DHT22;44209;52.952;6.790;2023-06-22T03:37:34;16.50;99.90
58413;DHT22;44209;52.952;6.790;2023-06-22T03:40:00;16.50;99.90
58413;DHT22;44209;52.952;6.790;2023-06-22T03:42:26;16.50;99.90
58413;DHT22;44209;52.952;6.790;2023-06-22T03:44:52;16.50;99.90
58413;DHT22;44209;52.952;6.790;2023-06-22T03:47:18;16.50;99.90
58413;DHT22;44209;52.952;6.790;2023-06-22T03:49:43;16.50;99.90
58413;DHT22;44209;52.952;6.790;2023-06-22T03:52:09;16.50;99.90
58413;DHT22;44209;52.952;6.790;2023-06-22T03:54:36;16.50;99.90
58413;DHT22;44209;52.952;6.790;2023-06-22T03:57:02;16.50;99.90
58413;DHT22;44209;52.952;6.790;2023-06-22T03:59:28;16.50;99.90
58413;DHT22;44209;52.952;6.790;2023-06-22T04:01:53;16.40;99.90
58413;DHT22;44209;52.952;6.790;2023-06-22T04:04:20;16.40;99.90
58413;DHT22;44209;52.952;6.790;2023-06-22T04:06:46;16.40;99.90
58413;DHT22;44209;52.952;6.790;2023-06-22T04:09:12;16.40;99.90
58413;DHT22;44209;52.952;6.790;2023-06-22T04:11:37;16.40;99.90
58413;DHT22;44209;52.952;6.790;2023-06-22T04:14:03;16.40;99.90
58413;DHT22;44209;52.952;6.790;2023-06-22T04:16:29;16.40;99.90
58413;DHT22;44209;52.952;6.790;2023-06-22T04:18:55;16.40;99.90
58413;DHT22;44209;52.952;6.790;2023-06-22T04:21:20;16.50;99.90
58413;DHT22;44209;52.952;6.790;2023-06-22T04:23:46;16.50;99.90
58413;DHT22;44209;52.952;6.790;2023-06-22T04:26:13;16.50;99.90
58413;DHT22;44209;52.952;6.790;2023-06-22T04:28:40;16.50;99.90
58413;DHT22;44209;52.952;6.790;2023-06-22T04:31:05;16.50;99.90
58413;DHT22;44209;52.952;6.790;2023-06-22T04:33:31;16.50;99.90
58413;DHT22;44209;52.952;6.790;2023-06-22T04:35:58;16.50;99.90
58413;DHT22;44209;52.952;6.790;2023-06-22T04:38:25;16.50;99.90
58413;DHT22;44209;52.952;6.790;2023-06-22T04:40:51;16.60;99.90
58413;DHT22;44209;52.952;6.790;2023-06-22T04:43:17;16.50;99.90
58413;DHT22;44209;52.952;6.790;2023-06-22T04:45:42;16.50;99.90
58413;DHT22;44209;52.952;6.790;2023-06-22T04:48:08;16.60;99.90
58413;DHT22;44209;52.952;6.790;2023-06-22T04:50:36;16.70;99.90
58413;DHT22;44209;52.952;6.790;2023-06-22T04:53:04;16.90;99.90
58413;DHT22;44209;52.952;6.790;2023-06-22T04:55:32;16.90;99.90
58413;DHT22;44209;52.952;6.790;2023-06-22T04:57:57;16.90;99.90
58413;DHT22;44209;52.952;6.790;2023-06-22T05:00:30;17.00;99.90
58413;DHT22;44209;52.952;6.790;2023-06-22T05:02:56;17.00;99.90
58413;DHT22;44209;52.952;6.790;2023-06-22T05:05:26;17.00;99.90
58413;DHT22;44209;52.952;6.790;2023-06-22T05:07:51;17.00;99.90
58413;DHT22;44209;52.952;6.790;2023-06-22T05:10:25;17.10;99.90
58413;DHT22;44209;52.952;6.790;2023-06-22T05:12:50;17.00;99.90
58413;DHT22;44209;52.952;6.790;2023-06-22T05:15:16;17.10;99.90
58413;DHT22;44209;52.952;6.790;2023-06-22T05:17:44;17.10;99.90
58413;DHT22;44209;52.952;6.790;2023-06-22T05:20:11;17.20;99.90
58413;DHT22;44209;52.952;6.790;2023-06-22T05:22:38;17.20;99.90
58413;DHT22;44209;52.952;6.790;2023-06-22T05:25:07;17.20;99.90
58413;DHT22;44209;52.952;6.790;2023-06-22T05:27:33;17.30;99.90
58413;DHT22;44209;52.952;6.790;2023-06-22T05:29:59;17.40;99.90
58413;DHT22;44209;52.952;6.790;2023-06-22T05:32:25;17.40;99.90
58413;DHT22;44209;52.952;6.790;2023-06-22T05:34:50;17.40;99.90
58413;DHT22;44209;52.952;6.790;2023-06-22T05:37:16;17.50;99.90
58413;DHT22;44209;52.952;6.790;2023-06-22T05:39:42;17.60;99.90
58413;DHT22;44209;52.952;6.790;2023-06-22T05:42:08;17.70;99.90
58413;DHT22;44209;52.952;6.790;2023-06-22T05:44:34;17.70;99.90
58413;DHT22;44209;52.952;6.790;2023-06-22T05:46:59;17.80;99.90
58413;DHT22;44209;52.952;6.790;2023-06-22T05:49:25;17.90;99.90
58413;DHT22;44209;52.952;6.790;2023-06-22T05:51:58;18.00;99.90
58413;DHT22;44209;52.952;6.790;2023-06-22T05:54:23;18.10;99.90
58413;DHT22;44209;52.952;6.790;2023-06-22T05:56:49;18.20;99.90
58413;DHT22;44209;52.952;6.790;2023-06-22T05:59:15;18.30;99.90
58413;DHT22;44209;52.952;6.790;2023-06-22T06:01:41;18.40;99.90
58413;DHT22;44209;52.952;6.790;2023-06-22T06:04:06;18.50;99.90
58413;DHT22;44209;52.952;6.790;2023-06-22T06:06:35;18.60;99.90
58413;DHT22;44209;52.952;6.790;2023-06-22T06:09:05;18.70;99.90
58413;DHT22;44209;52.952;6.790;2023-06-22T06:11:32;18.80;99.90
58413;DHT22;44209;52.952;6.790;2023-06-22T06:13:57;18.80;99.90
58413;DHT22;44209;52.952;6.790;2023-06-22T06:16:23;18.80;99.90
58413;DHT22;44209;52.952;6.790;2023-06-22T06:18:49;19.00;99.90
58413;DHT22;44209;52.952;6.790;2023-06-22T06:21:16;19.10;99.90
58413;DHT22;44209;52.952;6.790;2023-06-22T06:23:42;19.20;99.90
58413;DHT22;44209;52.952;6.790;2023-06-22T06:26:08;19.20;99.90
58413;DHT22;44209;52.952;6.790;2023-06-22T06:28:34;19.30;99.90
58413;DHT22;44209;52.952;6.790;2023-06-22T06:31:00;19.50;99.90
58413;DHT22;44209;52.952;6.790;2023-06-22T06:33:26;19.60;99.90
58413;DHT22;44209;52.952;6.790;2023-06-22T06:35:52;19.60;99.90
58413;DHT22;44209;52.952;6.790;2023-06-22T06:38:18;19.90;99.90
58413;DHT22;44209;52.952;6.790;2023-06-22T06:40:44;20.00;99.90
58413;DHT22;44209;52.952;6.790;2023-06-22T06:43:10;20.10;99.90
58413;DHT22;44209;52.952;6.790;2023-06-22T06:45:36;20.10;99.90
58413;DHT22;44209;52.952;6.790;2023-06-22T06:48:02;20.10;99.90
58413;DHT22;44209;52.952;6.790;2023-06-22T06:50:28;20.10;99.90
58413;DHT22;44209;52.952;6.790;2023-06-22T06:52:54;20.10;99.90
58413;DHT22;44209;52.952;6.790;2023-06-22T06:55:21;20.10;99.90
58413;DHT22;44209;52.952;6.790;2023-06-22T06:57:50;20.20;99.90
58413;DHT22;44209;52.952;6.790;2023-06-22T07:00:16;20.30;99.90
58413;DHT22;44209;52.952;6.790;2023-06-22T07:02:43;20.30;99.90
58413;DHT22;44209;52.952;6.790;2023-06-22T07:05:10;20.40;99.90
58413;DHT22;44209;52.952;6.790;2023-06-22T07:07:36;20.50;99.90
58413;DHT22;44209;52.952;6.790;2023-06-22T07:10:03;20.50;99.90
58413;DHT22;44209;52.952;6.790;2023-06-22T07:12:28;20.60;99.90
58413;DHT22;44209;52.952;6.790;2023-06-22T07:15:04;20.80;99.90
58413;DHT22;44209;52.952;6.790;2023-06-22T07:17:30;20.90;99.90
58413;DHT22;44209;52.952;6.790;2023-06-22T07:19:56;21.00;99.90
58413;DHT22;44209;52.952;6.790;2023-06-22T07:22:22;21.00;99.90
58413;DHT22;44209;52.952;6.790;2023-06-22T07:24:47;21.00;99.90
58413;DHT22;44209;52.952;6.790;2023-06-22T07:27:14;21.10;99.90
58413;DHT22;44209;52.952;6.790;2023-06-22T07:29:42;21.20;99.90
58413;DHT22;44209;52.952;6.790;2023-06-22T07:32:08;21.30;99.90
58413;DHT22;44209;52.952;6.790;2023-06-22T07:34:34;21.30;99.90
58413;DHT22;44209;52.952;6.790;2023-06-22T07:37:00;21.40;99.90
58413;DHT22;44209;52.952;6.790;2023-06-22T07:39:26;21.50;99.90
58413;DHT22;44209;52.952;6.790;2023-06-22T07:41:52;21.50;99.90
58413;DHT22;44209;52.952;6.790;2023-06-22T07:44:18;21.70;99.90
58413;DHT22;44209;52.952;6.790;2023-06-22T07:46:44;21.70;99.90
58413;DHT22;44209;52.952;6.790;2023-06-22T07:49:10;21.80;99.90
58413;DHT22;44209;52.952;6.790;2023-06-22T07:51:36;21.90;99.90
58413;DHT22;44209;52.952;6.790;2023-06-22T07:54:01;22.10;99.90
58413;DHT22;44209;52.952;6.790;2023-06-22T07:56:27;22.30;99.90
58413;DHT22;44209;52.952;6.790;2023-06-22T07:58:53;22.30;99.90
58413;DHT22;44209;52.952;6.790;2023-06-22T08:01:19;22.30;99.90
58413;DHT22;44209;52.952;6.790;2023-06-22T08:03:48;22.30;99.90
58413;DHT22;44209;52.952;6.790;2023-06-22T08:06:14;22.50;99.90
58413;DHT22;44209;52.952;6.790;2023-06-22T08:08:39;22.60;99.90
58413;DHT22;44209;52.952;6.790;2023-06-22T08:11:05;22.70;99.90
58413;DHT22;44209;52.952;6.790;2023-06-22T08:13:31;22.90;99.90
58413;DHT22;44209;52.952;6.790;2023-06-22T08:15:57;23.00;99.90
58413;DHT22;44209;52.952;6.790;2023-06-22T08:18:23;23.10;99.90
58413;DHT22;44209;52.952;6.790;2023-06-22T08:20:49;23.30;99.90
58413;DHT22;44209;52.952;6.790;2023-06-22T08:23:15;23.40;99.90
58413;DHT22;44209;52.952;6.790;2023-06-22T08:25:41;23.50;99.90
58413;DHT22;44209;52.952;6.790;2023-06-22T08:28:06;23.50;99.90
58413;DHT22;44209;52.952;6.790;2023-06-22T08:30:32;23.50;99.90
58413;DHT22;44209;52.952;6.790;2023-06-22T08:32:58;23.70;99.90
58413;DHT22;44209;52.952;6.790;2023-06-22T08:35:24;23.80;99.90
58413;DHT22;44209;52.952;6.790;2023-06-22T08:37:50;23.70;99.90
58413;DHT22;44209;52.952;6.790;2023-06-22T08:40:22;23.70;99.90
58413;DHT22;44209;52.952;6.790;2023-06-22T08:42:50;23.70;99.90
58413;DHT22;44209;52.952;6.790;2023-06-22T08:45:15;23.90;99.90
58413;DHT22;44209;52.952;6.790;2023-06-22T08:47:42;24.00;99.90
58413;DHT22;44209;52.952;6.790;2023-06-22T08:50:09;23.90;99.90
58413;DHT22;44209;52.952;6.790;2023-06-22T08:52:35;23.80;99.90
58413;DHT22;44209;52.952;6.790;2023-06-22T08:55:01;23.70;99.90
58413;DHT22;44209;52.952;6.790;2023-06-22T08:57:27;23.60;99.90
58413;DHT22;44209;52.952;6.790;2023-06-22T08:59:53;23.70;99.90
58413;DHT22;44209;52.952;6.790;2023-06-22T09:02:24;23.70;99.90
58413;DHT22;44209;52.952;6.790;2023-06-22T09:04:49;23.70;99.90
58413;DHT22;44209;52.952;6.790;2023-06-22T09:07:24;23.80;99.90
58413;DHT22;44209;52.952;6.790;2023-06-22T09:09:51;24.00;99.90
58413;DHT22;44209;52.952;6.790;2023-06-22T09:12:18;24.10;99.90
58413;DHT22;44209;52.952;6.790;2023-06-22T09:14:45;24.10;99.90
58413;DHT22;44209;52.952;6.790;2023-06-22T09:17:12;24.20;99.90
58413;DHT22;44209;52.952;6.790;2023-06-22T09:19:38;24.40;99.90
58413;DHT22;44209;52.952;6.790;2023-06-22T09:22:04;24.40;99.90
58413;DHT22;44209;52.952;6.790;2023-06-22T09:24:32;24.50;99.90
58413;DHT22;44209;52.952;6.790;2023-06-22T09:26:58;24.60;99.90
58413;DHT22;44209;52.952;6.790;2023-06-22T09:29:23;24.70;99.90
58413;DHT22;44209;52.952;6.790;2023-06-22T09:31:49;24.50;99.90
58413;DHT22;44209;52.952;6.790;2023-06-22T09:34:15;24.50;99.90
58413;DHT22;44209;52.952;6.790;2023-06-22T09:36:48;24.50;99.90
58413;DHT22;44209;52.952;6.790;2023-06-22T09:39:14;24.60;99.90
58413;DHT22;44209;52.952;6.790;2023-06-22T09:41:40;24.80;99.90
58413;DHT22;44209;52.952;6.790;2023-06-22T09:44:06;25.00;99.90
58413;DHT22;44209;52.952;6.790;2023-06-22T09:46:31;25.10;99.90
58413;DHT22;44209;52.952;6.790;2023-06-22T09:48:57;25.20;99.90
58413;DHT22;44209;52.952;6.790;2023-06-22T09:51:23;25.20;99.90
58413;DHT22;44209;52.952;6.790;2023-06-22T09:53:50;25.10;99.90
58413;DHT22;44209;52.952;6.790;2023-06-22T09:56:16;25.00;99.90
58413;DHT22;44209;52.952;6.790;2023-06-22T09:58:42;25.10;99.90
58413;DHT22;44209;52.952;6.790;2023-06-22T10:01:08;25.00;99.90
58413;DHT22;44209;52.952;6.790;2023-06-22T10:03:35;25.30;99.90
58413;DHT22;44209;52.952;6.790;2023-06-22T10:06:01;25.30;99.90
58413;DHT22;44209;52.952;6.790;2023-06-22T10:08:26;25.30;99.90
58413;DHT22;44209;52.952;6.790;2023-06-22T10:10:52;25.50;99.90
58413;DHT22;44209;52.952;6.790;2023-06-22T10:13:18;25.30;99.90
58413;DHT22;44209;52.952;6.790;2023-06-22T10:15:44;25.30;99.90
58413;DHT22;44209;52.952;6.790;2023-06-22T10:18:15;25.40;99.90
58413;DHT22;44209;52.952;6.790;2023-06-22T10:20:42;25.50;99.90
58413;DHT22;44209;52.952;6.790;2023-06-22T10:23:07;25.70;99.90
58413;DHT22;44209;52.952;6.790;2023-06-22T10:25:33;25.70;99.90
58413;DHT22;44209;52.952;6.790;2023-06-22T10:27:59;25.70;99.90
58413;DHT22;44209;52.952;6.790;2023-06-22T10:30:25;25.50;99.90
58413;DHT22;44209;52.952;6.790;2023-06-22T10:32:50;25.40;99.90
58413;DHT22;44209;52.952;6.790;2023-06-22T10:35:16;25.40;99.90
58413;DHT22;44209;52.952;6.790;2023-06-22T10:37:46;25.50;99.90
58413;DHT22;44209;52.952;6.790;2023-06-22T10:40:13;25.50;99.90
58413;DHT22;44209;52.952;6.790;2023-06-22T10:42:39;25.70;99.90
58413;DHT22;44209;52.952;6.790;2023-06-22T10:45:05;25.90;99.90
58413;DHT22;44209;52.952;6.790;2023-06-22T10:47:31;26.00;99.90
58413;DHT22;44209;52.952;6.790;2023-06-22T10:49:57;25.90;99.90
58413;DHT22;44209;52.952;6.790;2023-06-22T10:52:23;25.70;99.90
58413;DHT22;44209;52.952;6.790;2023-06-22T10:54:49;25.90;99.90
58413;DHT22;44209;52.952;6.790;2023-06-22T10:57:14;26.10;99.90
58413;DHT22;44209;52.952;6.790;2023-06-22T10:59:40;26.20;99.90
58413;DHT22;44209;52.952;6.790;2023-06-22T11:02:06;26.10;99.90
58413;DHT22;44209;52.952;6.790;2023-06-22T11:04:31;26.10;99.90
58413;DHT22;44209;52.952;6.790;2023-06-22T11:06:57;26.00;99.90
58413;DHT22;44209;52.952;6.790;2023-06-22T11:09:23;25.90;99.90
58413;DHT22;44209;52.952;6.790;2023-06-22T11:11:50;26.00;99.90
58413;DHT22;44209;52.952;6.790;2023-06-22T11:14:19;26.10;99.90
58413;DHT22;44209;52.952;6.790;2023-06-22T11:16:45;26.10;99.90
58413;DHT22;44209;52.952;6.790;2023-06-22T11:19:12;26.10;99.90
58413;DHT22;44209;52.952;6.790;2023-06-22T11:21:38;26.10;99.90
58413;DHT22;44209;52.952;6.790;2023-06-22T11:24:04;26.20;99.90
58413;DHT22;44209;52.952;6.790;2023-06-22T11:26:30;26.20;99.90
58413;DHT22;44209;52.952;6.790;2023-06-22T11:28:57;26.10;99.90
58413;DHT22;44209;52.952;6.790;2023-06-22T11:31:23;26.00;99.90
58413;DHT22;44209;52.952;6.790;2023-06-22T11:33:49;25.90;99.90
58413;DHT22;44209;52.952;6.790;2023-06-22T11:36:15;25.90;99.90
58413;DHT22;44209;52.952;6.790;2023-06-22T11:38:42;25.90;99.90
58413;DHT22;44209;52.952;6.790;2023-06-22T11:41:08;25.90;99.90
58413;DHT22;44209;52.952;6.790;2023-06-22T11:43:34;25.90;99.90
58413;DHT22;44209;52.952;6.790;2023-06-22T11:46:01;25.80;99.90
58413;DHT22;44209;52.952;6.790;2023-06-22T11:48:27;25.70;99.90
58413;DHT22;44209;52.952;6.790;2023-06-22T11:50:53;25.60;99.90
58413;DHT22;44209;52.952;6.790;2023-06-22T11:53:21;25.60;99.90
58413;DHT22;44209;52.952;6.790;2023-06-22T11:55:47;25.60;99.90
58413;DHT22;44209;52.952;6.790;2023-06-22T11:58:13;25.60;99.90
58413;DHT22;44209;52.952;6.790;2023-06-22T12:00:39;25.50;99.90
58413;DHT22;44209;52.952;6.790;2023-06-22T12:03:04;25.50;99.90
58413;DHT22;44209;52.952;6.790;2023-06-22T12:05:30;25.40;99.90
58413;DHT22;44209;52.952;6.790;2023-06-22T12:07:56;25.40;99.90
58413;DHT22;44209;52.952;6.790;2023-06-22T12:10:22;25.30;99.90
58413;DHT22;44209;52.952;6.790;2023-06-22T12:12:48;25.30;99.90
58413;DHT22;44209;52.952;6.790;2023-06-22T12:15:14;25.30;99.90
58413;DHT22;44209;52.952;6.790;2023-06-22T12:17:40;25.30;99.90
58413;DHT22;44209;52.952;6.790;2023-06-22T12:20:06;25.30;99.90
58413;DHT22;44209;52.952;6.790;2023-06-22T12:22:34;25.30;99.90
58413;DHT22;44209;52.952;6.790;2023-06-22T12:25:00;25.30;99.90
58413;DHT22;44209;52.952;6.790;2023-06-22T12:27:26;25.20;99.90
58413;DHT22;44209;52.952;6.790;2023-06-22T12:29:52;25.30;99.90
58413;DHT22;44209;52.952;6.790;2023-06-22T12:32:17;25.30;99.90
58413;DHT22;44209;52.952;6.790;2023-06-22T12:34:44;25.30;99.90
58413;DHT22;44209;52.952;6.790;2023-06-22T12:37:10;25.20;99.90
58413;DHT22;44209;52.952;6.790;2023-06-22T12:39:36;25.20;99.90
58413;DHT22;44209;52.952;6.790;2023-06-22T12:42:02;25.20;99.90
58413;DHT22;44209;52.952;6.790;2023-06-22T12:44:28;25.20;99.90
58413;DHT22;44209;52.952;6.790;2023-06-22T12:46:54;25.10;99.90
58413;DHT22;44209;52.952;6.790;2023-06-22T12:49:20;25.10;99.90
58413;DHT22;44209;52.952;6.790;2023-06-22T12:51:45;25.10;99.90
58413;DHT22;44209;52.952;6.790;2023-06-22T12:54:11;25.10;99.90
58413;DHT22;44209;52.952;6.790;2023-06-22T12:56:38;25.10;99.90
58413;DHT22;44209;52.952;6.790;2023-06-22T12:59:07;25.10;99.90
58413;DHT22;44209;52.952;6.790;2023-06-22T13:01:32;25.00;99.90
58413;DHT22;44209;52.952;6.790;2023-06-22T13:03:58;24.90;99.90
58413;DHT22;44209;52.952;6.790;2023-06-22T13:06:25;24.80;99.90
58413;DHT22;44209;52.952;6.790;2023-06-22T13:08:50;24.80;99.90
58413;DHT22;44209;52.952;6.790;2023-06-22T13:11:16;24.80;99.90
58413;DHT22;44209;52.952;6.790;2023-06-22T13:13:44;24.70;99.90
58413;DHT22;44209;52.952;6.790;2023-06-22T13:16:10;24.60;99.90
58413;DHT22;44209;52.952;6.790;2023-06-22T13:18:36;24.60;99.90
58413;DHT22;44209;52.952;6.790;2023-06-22T13:21:02;24.60;99.90
58413;DHT22;44209;52.952;6.790;2023-06-22T13:23:28;24.50;99.90
58413;DHT22;44209;52.952;6.790;2023-06-22T13:25:54;24.50;99.90
58413;DHT22;44209;52.952;6.790;2023-06-22T13:28:20;24.40;99.90
58413;DHT22;44209;52.952;6.790;2023-06-22T13:30:47;24.40;99.90
58413;DHT22;44209;52.952;6.790;2023-06-22T13:33:16;24.40;99.90
58413;DHT22;44209;52.952;6.790;2023-06-22T13:35:42;24.40;99.90
58413;DHT22;44209;52.952;6.790;2023-06-22T13:38:09;24.30;99.90
58413;DHT22;44209;52.952;6.790;2023-06-22T13:40:35;24.30;99.90
58413;DHT22;44209;52.952;6.790;2023-06-22T13:43:01;24.20;99.90
58413;DHT22;44209;52.952;6.790;2023-06-22T13:45:27;24.20;99.90
58413;DHT22;44209;52.952;6.790;2023-06-22T13:47:53;24.20;99.90
58413;DHT22;44209;52.952;6.790;2023-06-22T13:50:18;24.10;99.90
58413;DHT22;44209;52.952;6.790;2023-06-22T13:52:44;24.00;99.90
58413;DHT22;44209;52.952;6.790;2023-06-22T13:55:10;24.00;99.90
58413;DHT22;44209;52.952;6.790;2023-06-22T13:57:36;24.00;99.90
58413;DHT22;44209;52.952;6.790;2023-06-22T14:00:04;24.00;99.90
58413;DHT22;44209;52.952;6.790;2023-06-22T14:02:33;24.00;99.90
58413;DHT22;44209;52.952;6.790;2023-06-22T14:04:59;24.00;99.90
58413;DHT22;44209;52.952;6.790;2023-06-22T14:07:25;24.00;99.90
58413;DHT22;44209;52.952;6.790;2023-06-22T14:09:51;24.00;99.90
58413;DHT22;44209;52.952;6.790;2023-06-22T14:12:17;24.00;99.90
58413;DHT22;44209;52.952;6.790;2023-06-22T14:14:46;24.00;99.90
58413;DHT22;44209;52.952;6.790;2023-06-22T14:17:11;23.90;99.90
58413;DHT22;44209;52.952;6.790;2023-06-22T14:19:37;23.90;99.90
58413;DHT22;44209;52.952;6.790;2023-06-22T14:22:03;23.90;99.90
58413;DHT22;44209;52.952;6.790;2023-06-22T14:24:29;23.90;99.90
58413;DHT22;44209;52.952;6.790;2023-06-22T14:26:55;23.80;99.90
58413;DHT22;44209;52.952;6.790;2023-06-22T14:29:25;23.80;99.90
58413;DHT22;44209;52.952;6.790;2023-06-22T14:31:51;23.70;99.90
58413;DHT22;44209;52.952;6.790;2023-06-22T14:34:16;23.70;99.90
58413;DHT22;44209;52.952;6.790;2023-06-22T14:36:42;23.70;99.90
58413;DHT22;44209;52.952;6.790;2023-06-22T14:39:09;23.60;99.90
58413;DHT22;44209;52.952;6.790;2023-06-22T14:41:34;23.50;99.90
58413;DHT22;44209;52.952;6.790;2023-06-22T14:44:00;23.40;99.90
58413;DHT22;44209;52.952;6.790;2023-06-22T14:46:27;23.40;99.90
58413;DHT22;44209;52.952;6.790;2023-06-22T14:48:53;23.30;99.90
58413;DHT22;44209;52.952;6.790;2023-06-22T14:51:18;23.10;99.90
58413;DHT22;44209;52.952;6.790;2023-06-22T14:53:45;22.90;99.90
58413;DHT22;44209;52.952;6.790;2023-06-22T14:56:11;22.80;99.90
58413;DHT22;44209;52.952;6.790;2023-06-22T14:58:38;22.60;99.90
58413;DHT22;44209;52.952;6.790;2023-06-22T15:01:05;22.50;99.90
58413;DHT22;44209;52.952;6.790;2023-06-22T15:03:34;22.40;99.90
58413;DHT22;44209;52.952;6.790;2023-06-22T15:06:01;22.30;99.90
58413;DHT22;44209;52.952;6.790;2023-06-22T15:08:27;22.20;99.90
58413;DHT22;44209;52.952;6.790;2023-06-22T15:10:53;22.10;99.90
58413;DHT22;44209;52.952;6.790;2023-06-22T15:13:19;22.00;99.90
58413;DHT22;44209;52.952;6.790;2023-06-22T15:15:46;21.90;99.90
58413;DHT22;44209;52.952;6.790;2023-06-22T15:18:13;21.80;99.90
58413;DHT22;44209;52.952;6.790;2023-06-22T15:20:39;21.70;99.90
58413;DHT22;44209;52.952;6.790;2023-06-22T15:23:06;21.60;99.90
58413;DHT22;44209;52.952;6.790;2023-06-22T15:25:34;21.50;99.90
58413;DHT22;44209;52.952;6.790;2023-06-22T15:28:00;21.50;99.90
58413;DHT22;44209;52.952;6.790;2023-06-22T15:30:25;21.40;99.90
58413;DHT22;44209;52.952;6.790;2023-06-22T15:32:51;21.30;99.90
58413;DHT22;44209;52.952;6.790;2023-06-22T15:35:17;21.20;99.90